Time;durP1;ratioP1;P1;durP2;ratioP2;P2;SDS_P1;SDS_P2;PMS_P1;PMS_P2;Temp;Humidity;BMP_temperature;BMP_pressure;BME280_temperature;BME280_humidity;BME280_pressure;Samples;Min_cycle;Max_cycle;Signal;HPM_P1;HPM_P2
2021/05/28 00:00:31;;;;;;;;;;;;;;;24.15;65.20;100381.09;1733253;81;20264;-60
2021/05/28 00:02:59;;;;;;;;;;;;;;;24.12;65.23;100378.41;1733882;81;20532;-59
2021/05/28 00:05:25;;;;;;;;;;;;;;;24.09;65.25;100376.92;1737036;81;20224;-60
2021/05/28 00:07:50;;;;;;;;;;;;;;;24.07;65.27;100376.45;1734547;81;21514;-59
2021/05/28 00:10:16;;;;;;;;;;;;;;;24.04;65.27;100374.38;1734286;81;20260;-60
2021/05/28 00:12:42;;;;;;;;;;;;;;;24.01;65.30;100373.13;1728548;81;20234;-60
2021/05/28 00:15:09;;;;;;;;;;;;;;;23.98;65.32;100374.38;1736503;81;20303;-59
2021/05/28 00:17:36;;;;;;;;;;;;;;;23.95;65.35;100374.52;1738458;81;20288;-59
2021/05/28 00:20:03;;;;;;;;;;;;;;;23.93;65.39;100372.66;1732418;81;21136;-59
2021/05/28 00:22:29;;;;;;;;;;;;;;;23.90;65.40;100365.02;1744125;81;20168;-59
2021/05/28 00:24:55;;;;;;;;;;;;;;;23.89;65.46;100370.95;1737646;81;20227;-59
2021/05/28 00:27:21;;;;;;;;;;;;;;;23.88;65.46;100367.94;1732198;81;20244;-60
2021/05/28 00:29:47;;;;;;;;;;;;;;;23.90;65.47;100383.09;1745186;79;20298;-59
2021/05/28 00:32:13;;;;;;;;;;;;;;;23.92;65.51;100379.97;1770362;79;21142;-59
2021/05/28 00:34:39;;;;;;;;;;;;;;;23.93;65.57;100384.38;1770696;79;20343;-59
2021/05/28 00:37:05;;;;;;;;;;;;;;;23.95;65.59;100380.64;1773100;79;20712;-59
2021/05/28 00:39:31;;;;;;;;;;;;;;;23.98;65.66;100386.88;1773283;79;20646;-60
2021/05/28 00:41:56;;;;;;;;;;;;;;;24.00;65.65;100383.19;1773301;79;20310;-60
2021/05/28 00:44:23;;;;;;;;;;;;;;;24.03;65.68;100390.81;1774881;79;21180;-60
2021/05/28 00:46:49;;;;;;;;;;;;;;;24.05;65.68;100389.33;1776113;79;20569;-60
2021/05/28 00:49:15;;;;;;;;;;;;;;;24.08;65.68;100394.17;1769255;79;20890;-60
2021/05/28 00:51:41;;;;;;;;;;;;;;;24.10;65.66;100396.61;1769484;79;20239;-59
2021/05/28 00:54:09;;;;;;;;;;;;;;;24.12;65.69;100390.11;1770579;79;20234;-60
2021/05/28 00:56:35;;;;;;;;;;;;;;;24.13;65.69;100391.16;1773310;79;21131;-59
2021/05/28 00:59:01;;;;;;;;;;;;;;;24.15;65.67;100392.20;1762231;79;20486;-60
2021/05/28 01:01:27;;;;;;;;;;;;;;;24.16;65.64;100393.02;1772057;79;20266;-60
2021/05/28 01:03:53;;;;;;;;;;;;;;;24.15;65.61;100390.81;1767098;79;20702;-59
2021/05/28 01:06:19;;;;;;;;;;;;;;;24.13;65.55;100391.73;1744044;80;20522;-60
2021/05/28 01:08:45;;;;;;;;;;;;;;;24.10;65.53;100380.72;1773561;79;21178;-60
2021/05/28 01:11:11;;;;;;;;;;;;;;;24.09;65.50;100386.07;1772987;79;20146;-60
2021/05/28 01:13:37;;;;;;;;;;;;;;;24.05;65.47;100380.98;1773195;79;20252;-60
2021/05/28 01:16:04;;;;;;;;;;;;;;;24.02;65.45;100378.08;1773764;79;20729;-59
2021/05/28 01:18:30;;;;;;;;;;;;;;;24.00;65.48;100377.62;1774192;79;20233;-59
2021/05/28 01:20:56;;;;;;;;;;;;;;;23.96;65.47;100374.75;1769918;79;21264;-59
2021/05/28 01:23:22;;;;;;;;;;;;;;;23.93;65.50;100380.20;1770707;79;20206;-59
2021/05/28 01:25:48;;;;;;;;;;;;;;;23.90;65.51;100377.53;1771800;79;20208;-59
2021/05/28 01:28:14;;;;;;;;;;;;;;;23.87;65.54;100376.84;1774156;79;20228;-59
2021/05/28 01:30:40;;;;;;;;;;;;;;;23.87;65.54;100374.65;1758990;79;20217;-59
2021/05/28 01:33:06;;;;;;;;;;;;;;;23.82;65.55;100367.36;1742259;80;21093;-60
2021/05/28 01:35:32;;;;;;;;;;;;;;;23.80;65.57;100361.36;1750182;80;20757;-60
2021/05/28 01:37:58;;;;;;;;;;;;;;;23.78;65.59;100357.30;1744157;80;20181;-59
2021/05/28 01:40:24;;;;;;;;;;;;;;;23.75;65.61;100350.48;1745769;80;20340;-60
2021/05/28 01:42:50;;;;;;;;;;;;;;;23.75;65.63;100351.06;1743912;80;20277;-60
2021/05/28 01:45:17;;;;;;;;;;;;;;;23.71;65.66;100343.20;1743757;80;21111;-60
2021/05/28 01:47:43;;;;;;;;;;;;;;;23.70;65.70;100338.80;1742240;80;20369;-60
2021/05/28 01:50:10;;;;;;;;;;;;;;;23.70;65.70;100342.95;1745791;80;20269;-60
2021/05/28 01:52:36;;;;;;;;;;;;;;;23.71;65.70;100334.86;1744162;80;20571;-60
2021/05/28 01:55:04;;;;;;;;;;;;;;;23.71;65.73;100342.63;1746701;80;21661;-60
2021/05/28 01:57:30;;;;;;;;;;;;;;;23.73;65.81;100339.47;1742876;80;21128;-60
2021/05/28 01:59:56;;;;;;;;;;;;;;;23.75;65.86;100342.15;1745598;80;20239;-60
2021/05/28 02:02:22;;;;;;;;;;;;;;;23.78;65.90;100340.05;1746364;80;20218;-60
2021/05/28 02:04:48;;;;;;;;;;;;;;;23.81;65.90;100344.90;1745395;80;20249;-60
2021/05/28 02:07:14;;;;;;;;;;;;;;;23.82;65.92;100338.19;1745804;80;20371;-60
2021/05/28 02:09:40;;;;;;;;;;;;;;;23.86;65.93;100342.45;1746081;80;21158;-60
2021/05/28 02:12:07;;;;;;;;;;;;;;;23.88;65.93;100343.75;1746085;80;20542;-60
2021/05/28 02:14:33;;;;;;;;;;;;;;;23.91;65.93;100347.20;1748166;80;20300;-60
2021/05/28 02:16:59;;;;;;;;;;;;;;;23.94;65.92;100348.45;1747831;80;20337;-60
2021/05/28 02:19:25;;;;;;;;;;;;;;;23.94;65.91;100340.12;1745381;80;20279;-60
2021/05/28 02:21:51;;;;;;;;;;;;;;;23.95;65.91;100338.97;1748699;80;21272;-60
2021/05/28 02:24:18;;;;;;;;;;;;;;;23.94;65.87;100340.12;1749129;80;21592;-60
2021/05/28 02:26:45;;;;;;;;;;;;;;;23.93;65.86;100342.69;1744912;80;20568;-60
2021/05/28 02:29:12;;;;;;;;;;;;;;;23.93;65.85;100345.47;1747781;80;21076;-60
2021/05/28 02:31:38;;;;;;;;;;;;;;;23.90;65.76;100340.02;1764798;79;20310;-60
2021/05/28 02:34:04;;;;;;;;;;;;;;;23.88;65.76;100338.77;1773629;79;21067;-60
2021/05/28 02:36:31;;;;;;;;;;;;;;;23.85;65.73;100337.48;1769523;79;20583;-60
2021/05/28 02:38:57;;;;;;;;;;;;;;;23.84;65.73;100337.27;1773885;79;20244;-60
2021/05/28 02:41:23;;;;;;;;;;;;;;;23.82;65.73;100330.44;1775079;79;20242;-60
2021/05/28 02:43:49;;;;;;;;;;;;;;;23.78;65.72;100328.94;1773144;79;20194;-62
2021/05/28 02:46:15;;;;;;;;;;;;;;;23.76;65.73;100334.05;1774584;79;21064;-60
2021/05/28 02:48:41;;;;;;;;;;;;;;;23.74;65.74;100336.36;1774682;79;20224;-60
2021/05/28 02:51:07;;;;;;;;;;;;;;;23.72;65.72;100336.48;1771392;79;20247;-60
2021/05/28 02:53:36;;;;;;;;;;;;;;;23.68;65.74;100338.55;1774000;79;20158;-60
2021/05/28 02:56:03;;;;;;;;;;;;;;;23.65;65.76;100335.67;1775213;79;20236;-59
2021/05/28 02:58:29;;;;;;;;;;;;;;;23.63;65.78;100340.20;1771397;79;21132;-60
2021/05/28 03:00:55;;;;;;;;;;;;;;;23.60;65.80;100334.52;1773325;79;20294;-59
2021/05/28 03:03:22;;;;;;;;;;;;;;;23.59;65.82;100335.70;1751048;80;20254;-59
2021/05/28 03:05:50;;;;;;;;;;;;;;;23.57;65.84;100336.61;1721874;82;20331;-60
2021/05/28 03:08:15;;;;;;;;;;;;;;;23.55;65.86;100338.34;1722757;82;20237;-60
2021/05/28 03:10:41;;;;;;;;;;;;;;;23.53;65.86;100336.50;1726561;82;21609;-59
2021/05/28 03:13:07;;;;;;;;;;;;;;;23.54;65.87;100338.13;1773497;79;20286;-60
2021/05/28 03:15:33;;;;;;;;;;;;;;;23.56;65.90;100335.80;1774245;79;20214;-58
2021/05/28 03:17:59;;;;;;;;;;;;;;;23.56;65.92;100337.19;1775159;79;20262;-60
2021/05/28 03:20:27;;;;;;;;;;;;;;;23.59;65.99;100343.42;1773270;79;20417;-60
2021/05/28 03:22:53;;;;;;;;;;;;;;;23.62;66.01;100347.48;1774817;79;21213;-60
2021/05/28 03:25:19;;;;;;;;;;;;;;;23.66;66.04;100353.39;1773453;79;20230;-60
2021/05/28 03:27:49;;;;;;;;;;;;;;;23.68;66.08;100352.44;1771880;79;20615;-60
2021/05/28 03:30:14;;;;;;;;;;;;;;;23.72;66.10;100348.38;1772786;79;20293;-60
2021/05/28 03:32:40;;;;;;;;;;;;;;;23.76;66.09;100344.35;1735423;81;20461;-60
2021/05/28 03:35:07;;;;;;;;;;;;;;;23.79;66.06;100345.84;1730258;81;21045;-60
2021/05/28 03:37:33;;;;;;;;;;;;;;;23.81;66.05;100350.45;1734882;81;20829;-60
2021/05/28 03:40:00;;;;;;;;;;;;;;;23.84;66.03;100348.96;1737320;81;20154;-61
2021/05/28 03:42:26;;;;;;;;;;;;;;;23.86;66.04;100350.22;1734720;81;20233;-60
2021/05/28 03:44:52;;;;;;;;;;;;;;;23.86;66.00;100346.63;1742435;81;20239;-61
2021/05/28 03:47:18;;;;;;;;;;;;;;;23.86;65.99;100341.07;1733011;81;21158;-60
2021/05/28 03:49:45;;;;;;;;;;;;;;;23.86;65.91;100339.11;1735980;81;20506;-61
2021/05/28 03:52:11;;;;;;;;;;;;;;;23.85;65.88;100338.87;1734608;81;20256;-60
2021/05/28 03:54:38;;;;;;;;;;;;;;;23.83;65.84;100331.48;1737499;81;20269;-60
2021/05/28 03:57:04;;;;;;;;;;;;;;;23.81;65.80;100335.17;1730490;81;20289;-61
2021/05/28 03:59:30;;;;;;;;;;;;;;;23.79;65.75;100335.31;1733872;81;21151;-61
2021/05/28 04:01:56;;;;;;;;;;;;;;;23.77;65.75;100340.39;1730826;81;20568;-61
2021/05/28 04:04:22;;;;;;;;;;;;;;;23.74;65.76;100340.52;1739748;81;20582;-61
2021/05/28 04:06:48;;;;;;;;;;;;;;;23.72;65.76;100335.10;1734093;81;20986;-60
2021/05/28 04:09:14;;;;;;;;;;;;;;;23.70;65.77;100341.00;1733669;81;20511;-60
2021/05/28 04:11:40;;;;;;;;;;;;;;;23.66;65.79;100329.78;1732502;81;21835;-61
2021/05/28 04:14:06;;;;;;;;;;;;;;;23.64;65.79;100341.80;1731729;81;20268;-59
2021/05/28 04:16:32;;;;;;;;;;;;;;;23.63;65.84;100340.78;1725758;81;20264;-60
2021/05/28 04:18:58;;;;;;;;;;;;;;;23.61;65.85;100334.75;1739236;81;20300;-61
2021/05/28 04:21:24;;;;;;;;;;;;;;;23.58;65.86;100333.50;1732858;81;20523;-61
2021/05/28 04:23:50;;;;;;;;;;;;;;;23.56;65.89;100337.19;1734911;81;21086;-61
2021/05/28 04:26:16;;;;;;;;;;;;;;;23.55;65.91;100332.78;1728669;81;20459;-61
2021/05/28 04:28:42;;;;;;;;;;;;;;;23.53;65.98;100335.12;1729117;81;20252;-60
2021/05/28 04:31:08;;;;;;;;;;;;;;;23.53;65.99;100332.92;1741087;80;20191;-61
2021/05/28 04:33:34;;;;;;;;;;;;;;;23.52;66.00;100330.72;1709172;80;20231;-60
2021/05/28 04:36:00;;;;;;;;;;;;;;;23.54;66.00;100328.41;1761884;79;21079;-60
2021/05/28 04:38:26;;;;;;;;;;;;;;;23.56;66.04;100330.24;1725115;82;20270;-60
2021/05/28 04:40:53;;;;;;;;;;;;;;;23.58;66.08;100333.50;1764792;80;20775;-61
2021/05/28 04:43:20;;;;;;;;;;;;;;;23.58;66.11;100333.50;1757330;80;20268;-61
2021/05/28 04:45:46;;;;;;;;;;;;;;;23.62;66.18;100339.16;1758237;80;20264;-62
2021/05/28 04:48:12;;;;;;;;;;;;;;;23.64;66.19;100343.19;1763439;80;21070;-58
2021/05/28 04:50:38;;;;;;;;;;;;;;;23.68;66.25;100334.39;1761074;80;20263;-59
2021/05/28 04:53:05;;;;;;;;;;;;;;;23.73;66.22;100336.12;1763694;80;20218;-59
2021/05/28 04:55:31;;;;;;;;;;;;;;;23.75;66.21;100331.61;1757064;80;20673;-59
2021/05/28 04:57:57;;;;;;;;;;;;;;;23.79;66.15;100349.20;1761457;80;20625;-59
2021/05/28 05:00:23;;;;;;;;;;;;;;;23.80;66.13;100341.91;1761503;80;21144;-59
2021/05/28 05:02:50;;;;;;;;;;;;;;;23.81;66.08;100341.30;1764882;80;20313;-57
2021/05/28 05:05:16;;;;;;;;;;;;;;;23.81;66.09;100335.75;1763516;80;20538;-55
2021/05/28 05:07:42;;;;;;;;;;;;;;;23.81;66.12;100328.23;1766913;80;20231;-57
2021/05/28 05:10:09;;;;;;;;;;;;;;;23.83;66.14;100334.26;1738372;80;20357;-58
2021/05/28 05:12:35;;;;;;;;;;;;;;;23.86;66.17;100332.16;1759897;80;21116;-57
2021/05/28 05:15:01;;;;;;;;;;;;;;;23.87;66.23;100331.00;1764396;80;20272;-58
2021/05/28 05:17:27;;;;;;;;;;;;;;;23.91;66.36;100322.20;1763411;80;20295;-58
2021/05/28 05:19:53;;;;;;;;;;;;;;;23.96;66.47;100324.73;1759494;80;20362;-58
2021/05/28 05:22:19;;;;;;;;;;;;;;;23.98;66.58;100321.01;1764600;80;20783;-58
2021/05/28 05:24:44;;;;;;;;;;;;;;;24.00;66.67;100320.09;1769706;80;21748;-59
2021/05/28 05:27:10;;;;;;;;;;;;;;;24.03;66.80;100316.59;1764619;80;21294;-59
2021/05/28 05:29:36;;;;;;;;;;;;;;;24.04;66.93;100316.02;1765154;80;20216;-59
2021/05/28 05:32:03;;;;;;;;;;;;;;;24.04;67.05;100322.39;1748479;80;20269;-61
2021/05/28 05:34:28;;;;;;;;;;;;;;;24.05;67.15;100316.26;1733172;81;20273;-59
2021/05/28 05:36:55;;;;;;;;;;;;;;;24.05;67.24;100317.64;1734227;81;21129;-58
2021/05/28 05:39:24;;;;;;;;;;;;;;;24.03;67.29;100321.34;1726549;81;20730;-59
2021/05/28 05:41:50;;;;;;;;;;;;;;;24.05;67.33;100325.98;1734406;81;20268;-60
2021/05/28 05:44:16;;;;;;;;;;;;;;;24.06;67.39;100326.22;1734333;81;20244;-59
2021/05/28 05:46:42;;;;;;;;;;;;;;;24.07;67.45;100330.59;1727938;81;20276;-60
2021/05/28 05:49:08;;;;;;;;;;;;;;;24.07;67.48;100330.02;1731326;81;21097;-60
2021/05/28 05:51:33;;;;;;;;;;;;;;;24.08;67.51;100328.86;1731148;81;20275;-59
2021/05/28 05:53:59;;;;;;;;;;;;;;;24.10;67.55;100327.91;1731190;81;20272;-60
2021/05/28 05:56:26;;;;;;;;;;;;;;;24.12;67.60;100324.21;1728178;81;20305;-59
2021/05/28 05:58:52;;;;;;;;;;;;;;;24.15;67.58;100325.50;1726916;81;20269;-58
2021/05/28 06:01:19;;;;;;;;;;;;;;;24.16;67.60;100324.34;1726634;81;21158;-59
2021/05/28 06:03:45;;;;;;;;;;;;;;;24.20;67.61;100323.86;1727626;81;20655;-60
2021/05/28 06:06:11;;;;;;;;;;;;;;;24.25;67.62;100321.41;1732955;81;20205;-60
2021/05/28 06:08:37;;;;;;;;;;;;;;;24.27;67.63;100314.36;1735370;81;20216;-60
2021/05/28 06:11:03;;;;;;;;;;;;;;;24.28;67.66;100317.91;1729851;81;20239;-59
2021/05/28 06:13:28;;;;;;;;;;;;;;;24.31;67.67;100322.79;1735427;81;21262;-59
2021/05/28 06:15:54;;;;;;;;;;;;;;;24.30;67.67;100317.80;1732935;81;20578;-59
2021/05/28 06:18:20;;;;;;;;;;;;;;;24.28;67.67;100324.29;1731526;81;20240;-59
2021/05/28 06:20:46;;;;;;;;;;;;;;;24.27;67.68;100323.27;1734368;81;20277;-60
2021/05/28 06:23:12;;;;;;;;;;;;;;;24.25;67.66;100329.17;1735747;81;20234;-59
2021/05/28 06:25:41;;;;;;;;;;;;;;;24.24;67.66;100333.11;1734537;81;20958;-60
2021/05/28 06:28:06;;;;;;;;;;;;;;;24.23;67.62;100327.92;1738962;81;20249;-59
2021/05/28 06:30:32;;;;;;;;;;;;;;;24.19;67.58;100313.90;1729609;81;20272;-60
2021/05/28 06:33:01;;;;;;;;;;;;;;;24.18;67.58;100317.05;1757700;80;20182;-59
2021/05/28 06:35:27;;;;;;;;;;;;;;;24.14;67.58;100318.31;1764068;80;20391;-60
2021/05/28 06:37:53;;;;;;;;;;;;;;;24.11;67.58;100317.61;1759911;80;21069;-59
2021/05/28 06:40:19;;;;;;;;;;;;;;;24.10;67.57;100325.13;1763076;80;20125;-59
2021/05/28 06:42:44;;;;;;;;;;;;;;;24.08;67.55;100315.54;1765935;80;20277;-59
2021/05/28 06:45:11;;;;;;;;;;;;;;;24.06;67.53;100319.27;1770825;80;20186;-59
2021/05/28 06:47:37;;;;;;;;;;;;;;;24.02;67.51;100317.75;1768372;80;20247;-61
2021/05/28 06:50:04;;;;;;;;;;;;;;;24.01;67.52;100320.91;1766498;80;20968;-60
2021/05/28 06:52:30;;;;;;;;;;;;;;;24.01;67.52;100316.73;1763599;80;20308;-59
2021/05/28 06:54:56;;;;;;;;;;;;;;;23.99;67.52;100309.31;1761083;80;20200;-60
2021/05/28 06:57:22;;;;;;;;;;;;;;;23.99;67.53;100306.54;1763661;80;20439;-60
2021/05/28 06:59:48;;;;;;;;;;;;;;;23.97;67.48;100307.48;1756201;80;20272;-60
2021/05/28 07:02:14;;;;;;;;;;;;;;;23.96;67.53;100307.25;1769235;80;21031;-59
2021/05/28 07:04:40;;;;;;;;;;;;;;;23.97;67.47;100308.30;1768196;80;20272;-60
2021/05/28 07:07:06;;;;;;;;;;;;;;;24.00;67.47;100315.11;1766105;80;20782;-60
2021/05/28 07:09:32;;;;;;;;;;;;;;;24.02;67.50;100314.97;1764021;80;20712;-60
2021/05/28 07:11:58;;;;;;;;;;;;;;;24.04;67.53;100316.02;1766646;80;20275;-62
2021/05/28 07:14:24;;;;;;;;;;;;;;;24.06;67.55;100313.72;1762293;80;23293;-60
2021/05/28 07:16:50;;;;;;;;;;;;;;;24.10;67.55;100313.23;1768392;80;20203;-60
2021/05/28 07:19:16;;;;;;;;;;;;;;;24.12;67.55;100311.70;1764360;80;20260;-60
2021/05/28 07:21:42;;;;;;;;;;;;;;;24.14;67.55;100303.80;1768326;80;20215;-60
2021/05/28 07:24:09;;;;;;;;;;;;;;;24.17;67.53;100311.25;1763640;80;20226;-60
2021/05/28 07:26:35;;;;;;;;;;;;;;;24.20;67.53;100309.15;1764402;80;21062;-60
2021/05/28 07:29:01;;;;;;;;;;;;;;;24.22;67.48;100315.18;1766159;80;20713;-60
2021/05/28 07:31:27;;;;;;;;;;;;;;;24.24;67.45;100311.45;1768865;80;20212;-60
2021/05/28 07:33:53;;;;;;;;;;;;;;;24.25;67.43;100313.08;1765390;79;20202;-61
2021/05/28 07:36:21;;;;;;;;;;;;;;;24.25;67.42;100313.08;1765900;79;20180;-60
2021/05/28 07:38:47;;;;;;;;;;;;;;;24.23;67.39;100313.41;1762339;80;21174;-61
2021/05/28 07:41:13;;;;;;;;;;;;;;;24.22;67.38;100317.38;1763737;79;20256;-61
2021/05/28 07:43:39;;;;;;;;;;;;;;;24.20;67.35;100318.30;1764419;80;20282;-60
2021/05/28 07:46:05;;;;;;;;;;;;;;;24.18;67.30;100322.03;1765095;79;20230;-60
2021/05/28 07:48:31;;;;;;;;;;;;;;;24.15;67.29;100321.33;1765612;79;20572;-60
2021/05/28 07:51:00;;;;;;;;;;;;;;;24.13;67.27;100322.25;1764488;79;21082;-61
2021/05/28 07:53:26;;;;;;;;;;;;;;;24.10;67.26;100322.96;1765893;79;20217;-61
2021/05/28 07:55:54;;;;;;;;;;;;;;;24.07;67.25;100323.06;1764943;80;20583;-60
2021/05/28 07:58:20;;;;;;;;;;;;;;;24.05;67.27;100324.59;1766122;79;20250;-59
2021/05/28 08:00:45;;;;;;;;;;;;;;;24.03;67.28;100325.52;1767972;79;20254;-61
2021/05/28 08:03:11;;;;;;;;;;;;;;;24.00;67.26;100329.81;1763672;79;21117;-60
2021/05/28 08:05:37;;;;;;;;;;;;;;;23.97;67.27;100333.88;1765350;79;20257;-60
2021/05/28 08:08:04;;;;;;;;;;;;;;;23.93;67.26;100338.53;1765862;79;20789;-60
2021/05/28 08:10:30;;;;;;;;;;;;;;;23.90;67.28;100345.58;1762925;80;20572;-60
2021/05/28 08:12:56;;;;;;;;;;;;;;;23.89;67.30;100347.34;1764921;79;20206;-60
2021/05/28 08:15:22;;;;;;;;;;;;;;;23.86;67.32;100350.80;1765219;79;21451;-60
2021/05/28 08:17:48;;;;;;;;;;;;;;;23.84;67.34;100347.00;1764210;79;20251;-60
2021/05/28 08:20:14;;;;;;;;;;;;;;;23.82;67.35;100346.52;1765726;79;20336;-60
2021/05/28 08:22:41;;;;;;;;;;;;;;;23.82;67.34;100354.86;1749356;80;20308;-60
2021/05/28 08:25:07;;;;;;;;;;;;;;;23.83;67.33;100355.09;1768115;79;20320;-60
2021/05/28 08:27:33;;;;;;;;;;;;;;;23.84;67.33;100348.96;1766272;80;20953;-60
2021/05/28 08:29:59;;;;;;;;;;;;;;;23.86;67.37;100356.35;1749255;80;20820;-60
2021/05/28 08:32:25;;;;;;;;;;;;;;;23.88;67.38;100356.25;1749551;80;20202;-60
2021/05/28 08:34:51;;;;;;;;;;;;;;;23.91;67.39;100361.09;1749895;80;20704;-60
2021/05/28 08:37:17;;;;;;;;;;;;;;;23.92;67.38;100357.16;1748919;80;20204;-60
2021/05/28 08:39:43;;;;;;;;;;;;;;;23.95;67.38;100367.56;1758100;80;21070;-60
2021/05/28 08:42:12;;;;;;;;;;;;;;;23.98;67.39;100368.82;1704068;82;20312;-60
2021/05/28 08:44:38;;;;;;;;;;;;;;;24.02;67.37;100369.73;1728981;82;20509;-61
2021/05/28 08:47:04;;;;;;;;;;;;;;;24.04;67.37;100367.43;1766682;79;21328;-60
2021/05/28 08:49:30;;;;;;;;;;;;;;;24.06;67.32;100369.30;1772623;79;20299;-60
2021/05/28 08:51:58;;;;;;;;;;;;;;;24.09;67.30;100375.53;1768850;79;21124;-60
2021/05/28 08:54:24;;;;;;;;;;;;;;;24.09;67.25;100372.75;1770472;79;20517;-60
2021/05/28 08:56:51;;;;;;;;;;;;;;;24.09;67.24;100367.19;1770250;79;20280;-59
2021/05/28 08:59:17;;;;;;;;;;;;;;;24.09;67.15;100376.92;1739114;80;20267;-60
2021/05/28 09:01:43;;;;;;;;;;;;;;;24.06;67.11;100366.52;1772607;79;20242;-60
2021/05/28 09:04:10;;;;;;;;;;;;;;;24.03;67.06;100376.34;1771302;79;40187;-60
2021/05/28 09:06:45;;;;;;;;;;;;;;;24.02;67.07;100383.63;1769072;79;20271;-60
2021/05/28 09:09:15;;;;;;;;;;;;;;;23.98;67.01;100386.88;1770825;79;20286;-60
2021/05/28 09:11:56;;;;;;;;;;;;;;;23.95;67.00;100385.63;1771310;79;20878;-60
2021/05/28 09:14:30;;;;;;;;;;;;;;;23.92;66.98;100396.64;1776090;79;20303;-62
2021/05/28 09:16:56;;;;;;;;;;;;;;;23.88;66.96;100397.11;1767334;79;21056;-60
2021/05/28 09:19:23;;;;;;;;;;;;;;;23.83;66.93;100403.71;1774071;79;20214;-60
2021/05/28 09:22:09;;;;;;;;;;;;;;;23.80;66.91;100404.41;1767528;79;20493;-60
2021/05/28 09:24:40;;;;;;;;;;;;;;;23.78;66.94;100408.69;1760952;79;20220;-60
2021/05/28 09:27:19;;;;;;;;;;;;;;;23.72;66.95;100400.38;1759210;79;20266;-60
2021/05/28 09:30:11;;;;;;;;;;;;;;;23.68;66.95;100387.16;1758913;80;21134;-61
2021/05/28 09:32:39;;;;;;;;;;;;;;;23.66;66.96;100397.83;1769314;80;20936;-61
2021/05/28 09:35:15;;;;;;;;;;;;;;;23.62;67.00;100398.30;1765996;79;20228;-61
2021/05/28 09:37:47;;;;;;;;;;;;;;;23.59;66.99;100400.35;1766559;80;20286;-62
2021/05/28 09:40:27;;;;;;;;;;;;;;;23.55;67.02;100404.98;1774275;79;20241;-61
2021/05/28 09:42:59;;;;;;;;;;;;;;;23.53;67.04;100403.14;1770318;79;21193;-60
2021/05/28 09:45:32;;;;;;;;;;;;;;;23.51;67.07;100401.86;1759017;79;20290;-61
2021/05/28 09:48:03;;;;;;;;;;;;;;;23.51;67.07;100405.45;1770311;80;20284;-61
2021/05/28 09:50:33;;;;;;;;;;;;;;;23.52;67.08;100411.23;1767703;79;20203;-61
2021/05/28 09:53:03;;;;;;;;;;;;;;;23.54;67.10;100405.35;1773195;79;20379;-61
2021/05/28 09:55:30;;;;;;;;;;;;;;;23.56;67.17;100407.19;1777382;79;21228;-61
2021/05/28 09:57:57;;;;;;;;;;;;;;;23.57;67.19;100400.48;1777019;79;20214;-61
2021/05/28 10:00:30;;;;;;;;;;;;;;;23.60;67.20;100399.20;1774181;79;20225;-61
2021/05/28 10:03:19;;;;;;;;;;;;;;;23.63;67.24;100397.14;1774354;79;20319;-61
2021/05/28 10:05:47;;;;;;;;;;;;;;;23.65;67.25;100397.59;1770951;79;20299;-61
2021/05/28 10:08:14;;;;;;;;;;;;;;;23.68;67.26;100397.45;1771139;79;21123;-61
2021/05/28 10:10:41;;;;;;;;;;;;;;;23.71;67.26;100387.64;1772531;79;20263;-60
2021/05/28 10:13:11;;;;;;;;;;;;;;;23.73;67.24;100379.75;1775000;79;20304;-60
2021/05/28 10:15:42;;;;;;;;;;;;;;;23.76;67.27;100377.69;1777044;79;20381;-60
2021/05/28 10:18:08;;;;;;;;;;;;;;;23.78;67.27;100378.94;1776989;79;20252;-60
2021/05/28 10:20:35;;;;;;;;;;;;;;;23.80;67.25;100374.44;1773925;79;20994;-60
2021/05/28 10:23:01;;;;;;;;;;;;;;;23.81;67.22;100366.31;1748752;81;20483;-60
2021/05/28 10:25:27;;;;;;;;;;;;;;;23.84;67.18;100364.24;1774629;79;20246;-61
2021/05/28 10:27:58;;;;;;;;;;;;;;;23.85;67.15;100363.09;1776385;79;20207;-60
2021/05/28 10:30:27;;;;;;;;;;;;;;;23.84;67.06;100359.50;1771853;79;20219;-60
2021/05/28 10:33:16;;;;;;;;;;;;;;;23.83;67.03;100357.06;1769811;79;21146;-60
2021/05/28 10:35:51;;;;;;;;;;;;;;;23.83;67.01;100356.48;1733366;81;20240;-60
2021/05/28 10:38:33;;;;;;;;;;;;;;;23.78;66.93;100358.11;1731188;82;20270;-60
2021/05/28 10:41:09;;;;;;;;;;;;;;;23.77;66.91;100350.92;1737170;81;20256;-61
2021/05/28 10:43:36;;;;;;;;;;;;;;;23.75;66.92;100351.06;1734910;82;20252;-61
2021/05/28 10:46:05;;;;;;;;;;;;;;;23.72;66.91;100345.61;1740308;81;21927;-61
2021/05/28 10:48:42;;;;;;;;;;;;;;;23.71;66.89;100345.97;1738765;81;20502;-59
2021/05/28 10:51:13;;;;;;;;;;;;;;;23.70;66.89;100338.22;1732632;82;20214;-60
2021/05/28 10:53:56;;;;;;;;;;;;;;;23.68;66.92;100337.74;1742026;81;20597;-61
2021/05/28 10:56:23;;;;;;;;;;;;;;;23.68;66.92;100332.80;1743466;81;20294;-60
2021/05/28 10:58:59;;;;;;;;;;;;;;;23.69;66.92;100329.65;1733850;81;21131;-61
2021/05/28 11:01:35;;;;;;;;;;;;;;;23.70;66.91;100327.69;1737505;81;20241;-61
2021/05/28 11:04:04;;;;;;;;;;;;;;;23.70;66.91;100331.27;1732803;81;20498;-60
2021/05/28 11:06:31;;;;;;;;;;;;;;;23.70;66.89;100322.13;1730218;82;20390;-60
2021/05/28 11:09:08;;;;;;;;;;;;;;;23.68;66.91;100327.45;1733923;82;20223;-60
2021/05/28 11:11:41;;;;;;;;;;;;;;;23.70;66.91;100329.07;1734052;81;20951;-61
2021/05/28 11:14:11;;;;;;;;;;;;;;;23.73;66.89;100325.01;1741511;81;20245;-61
2021/05/28 11:16:52;;;;;;;;;;;;;;;23.77;66.89;100325.11;1739392;81;20271;-61
2021/05/28 11:19:23;;;;;;;;;;;;;;;23.81;66.91;100326.03;1733996;82;20688;-62
2021/05/28 11:21:55;;;;;;;;;;;;;;;23.87;66.92;100331.58;1736649;81;20505;-61
2021/05/28 11:24:20;;;;;;;;;;;;;;;23.91;66.92;100322.20;1745016;81;21695;-61
2021/05/28 11:26:46;;;;;;;;;;;;;;;23.96;66.92;100325.31;1747213;81;20226;-61
2021/05/28 11:29:19;;;;;;;;;;;;;;;24.01;66.89;100328.66;1744488;81;20230;-61
2021/05/28 11:31:45;;;;;;;;;;;;;;;24.03;66.82;100317.98;1742529;81;20217;-61
2021/05/28 11:34:11;;;;;;;;;;;;;;;24.06;66.80;100317.88;1755265;80;20212;-61
2021/05/28 11:36:40;;;;;;;;;;;;;;;24.08;66.80;100316.36;1774702;80;21167;-60
2021/05/28 11:39:10;;;;;;;;;;;;;;;24.09;66.75;100315.78;1772855;79;20314;-60
2021/05/28 11:42:03;;;;;;;;;;;;;;;24.10;66.78;100316.80;1771931;79;20562;-61
2021/05/28 11:44:31;;;;;;;;;;;;;;;24.09;66.73;100317.16;1766055;80;20199;-62
2021/05/28 11:46:57;;;;;;;;;;;;;;;24.06;66.70;100322.05;1771509;79;20216;-60
2021/05/28 11:49:23;;;;;;;;;;;;;;;24.04;66.70;100325.17;1771120;80;21119;-61
2021/05/28 11:52:05;;;;;;;;;;;;;;;24.02;66.67;100324.70;1769243;80;20250;-61
2021/05/28 11:54:33;;;;;;;;;;;;;;;24.00;66.64;100324.83;1726639;82;20240;-61
2021/05/28 11:57:01;;;;;;;;;;;;;;;23.96;66.66;100340.59;1772291;79;20719;-60
2021/05/28 11:59:49;;;;;;;;;;;;;;;23.93;66.63;100332.36;1726594;82;20272;-62
2021/05/28 12:02:32;;;;;;;;;;;;;;;23.91;66.66;100333.89;1766945;80;21154;-61
2021/05/28 12:04:58;;;;;;;;;;;;;;;23.88;66.66;100335.98;1766195;80;20516;-61
2021/05/28 12:07:29;;;;;;;;;;;;;;;23.87;66.66;100331.58;1773280;79;20311;-61
2021/05/28 12:10:06;;;;;;;;;;;;;;;23.87;66.66;100335.17;1769262;79;20535;-62
2021/05/28 12:12:52;;;;;;;;;;;;;;;23.87;66.66;100331.00;1767844;80;20604;-62
2021/05/28 12:15:19;;;;;;;;;;;;;;;23.88;66.68;100339.58;1776054;79;21050;-61
2021/05/28 12:17:45;;;;;;;;;;;;;;;23.90;66.64;100333.08;1770387;79;20229;-61
2021/05/28 12:20:21;;;;;;;;;;;;;;;23.94;66.61;100330.40;1773376;79;20811;-62
2021/05/28 12:23:06;;;;;;;;;;;;;;;23.96;66.59;100319.17;1765654;80;20315;-61
2021/05/28 12:25:38;;;;;;;;;;;;;;;23.99;66.57;100317.66;1771379;79;20243;-58
2021/05/28 12:28:18;;;;;;;;;;;;;;;24.00;66.50;100317.89;1766173;80;20157;-61
2021/05/28 12:30:46;;;;;;;;;;;;;;;24.01;66.49;100320.33;1773673;80;20211;-61
2021/05/28 12:33:12;;;;;;;;;;;;;;;23.99;66.47;100318.47;1772022;80;20253;-61
2021/05/28 12:35:39;;;;;;;;;;;;;;;23.99;66.43;100323.20;1774949;79;20198;-61
2021/05/28 12:38:08;;;;;;;;;;;;;;;23.99;66.43;100319.04;1772616;80;20613;-61